Time;durP1;ratioP1;P1;durP2;ratioP2;P2;SDS_P1;SDS_P2;PMS_P1;PMS_P2;Temp;Humidity;BMP_temperature;BMP_pressure;BME280_temperature;BME280_humidity;BME280_pressure;Samples;Min_cycle;Max_cycle;Signal;HPM_P1;HPM_P2
2022/08/08 00:01:03;;;;;;;6.38;4.15;;;19.50;59.00;;;;;;5112163;28;20024;-70
2022/08/08 00:03:53;;;;;;;8.10;5.07;;;19.40;58.80;;;;;;5112940;28;20040;-70
2022/08/08 00:06:45;;;;;;;6.63;4.68;;;19.20;59.00;;;;;;5113213;28;20029;-70
2022/08/08 00:09:24;;;;;;;9.32;4.43;;;19.20;59.40;;;;;;5113135;28;20028;-71
2022/08/08 00:12:05;;;;;;;10.55;4.30;;;19.20;59.50;;;;;;5113178;28;20101;-70
2022/08/08 00:14:47;;;;;;;6.47;4.10;;;19.10;59.20;;;;;;5113250;28;20024;-71
2022/08/08 00:17:22;;;;;;;6.82;4.70;;;19.10;59.30;;;;;;5113567;28;20054;-71
2022/08/08 00:20:01;;;;;;;7.60;4.65;;;19.00;59.50;;;;;;5116781;28;20028;-71
2022/08/08 00:22:35;;;;;;;9.07;4.95;;;18.90;60.70;;;;;;5117086;28;20019;-71
2022/08/08 00:25:13;;;;;;;8.75;5.35;;;18.80;61.00;;;;;;5116807;28;20024;-70
2022/08/08 00:27:40;;;;;;;9.38;5.30;;;18.90;61.20;;;;;;5116772;28;20383;-71
2022/08/08 00:30:10;;;;;;;8.88;5.13;;;18.80;61.60;;;;;;5116591;28;20031;-71
2022/08/08 00:33:10;;;;;;;7.82;5.10;;;18.80;61.90;;;;;;5116629;28;20020;-70
2022/08/08 00:35:44;;;;;;;9.10;5.25;;;18.90;61.40;;;;;;5116621;28;20039;-71
2022/08/08 00:38:33;;;;;;;8.35;5.47;;;19.00;61.40;;;;;;5116492;28;20080;-71
2022/08/08 00:41:39;;;;;;;7.28;5.10;;;19.10;61.60;;;;;;5116422;28;20028;-71
2022/08/08 00:44:23;;;;;;;8.88;5.28;;;19.10;61.60;;;;;;5116428;28;20050;-70
2022/08/08 00:47:38;;;;;;;8.70;5.38;;;19.00;62.00;;;;;;5116497;28;20079;-71
2022/08/08 00:50:51;;;;;;;10.43;5.10;;;19.00;62.30;;;;;;5116412;28;20051;-71
2022/08/08 00:53:31;;;;;;;6.90;4.50;;;19.00;62.30;;;;;;5106418;28;20036;-71
2022/08/08 00:56:38;;;;;;;8.00;5.22;;;19.00;62.40;;;;;;5116151;28;20032;-71
2022/08/08 00:59:10;;;;;;;9.50;5.35;;;19.10;62.00;;;;;;5108664;28;20371;-71
2022/08/08 01:01:51;;;;;;;7.00;5.00;;;19.10;62.10;;;;;;5116177;28;20024;-71
2022/08/08 01:04:35;;;;;;;8.57;4.55;;;19.10;62.20;;;;;;5115825;28;20760;-71
2022/08/08 01:07:20;;;;;;;7.70;5.10;;;19.10;62.10;;;;;;5116007;28;20024;-71
2022/08/08 01:10:31;;;;;;;7.15;4.88;;;19.00;62.10;;;;;;5115940;28;20024;-71
2022/08/08 01:13:34;;;;;;;6.93;4.40;;;18.70;62.50;;;;;;5115998;28;20020;-71
2022/08/08 01:16:29;;;;;;;9.43;4.78;;;18.60;62.40;;;;;;5115821;28;20035;-70
2022/08/08 01:19:13;;;;;;;7.82;5.10;;;18.50;62.70;;;;;;5110844;28;20036;-70
2022/08/08 01:22:10;;;;;;;9.68;4.80;;;18.50;63.20;;;;;;5115771;28;20024;-71
2022/08/08 01:24:55;;;;;;;8.02;4.90;;;18.60;63.80;;;;;;5115672;28;20020;-71
2022/08/08 01:27:48;;;;;;;8.27;5.00;;;18.60;63.20;;;;;;5115747;28;20024;-71
2022/08/08 01:30:23;;;;;;;9.60;5.50;;;18.60;62.70;;;;;;5114757;28;20058;-71
2022/08/08 01:33:33;;;;;;;7.18;5.03;;;18.50;62.30;;;;;;5115616;28;20032;-71
2022/08/08 01:36:26;;;;;;;8.32;5.00;;;18.30;62.50;;;;;;5114103;28;20040;-71
2022/08/08 01:39:12;;;;;;;8.57;5.35;;;18.10;63.20;;;;;;5115328;28;20044;-71
2022/08/08 01:42:06;;;;;;;7.93;5.47;;;18.00;63.70;;;;;;5115366;28;20076;-71
2022/08/08 01:44:50;;;;;;;12.20;5.20;;;18.00;63.60;;;;;;5115273;28;20029;-71
2022/08/08 01:47:40;;;;;;;9.13;4.93;;;17.90;63.70;;;;;;5115342;28;20023;-71
2022/08/08 01:50:41;;;;;;;7.90;4.95;;;18.00;63.50;;;;;;5115298;28;20052;-71
2022/08/08 01:53:38;;;;;;;8.15;5.05;;;18.00;63.70;;;;;;5108131;28;20032;-71
2022/08/08 01:56:41;;;;;;;9.77;5.30;;;18.00;63.10;;;;;;5095278;28;20045;-71
2022/08/08 01:59:31;;;;;;;7.80;5.10;;;17.80;63.10;;;;;;5115100;28;20024;-71
2022/08/08 02:02:38;;;;;;;6.97;4.47;;;17.80;64.00;;;;;;5114910;28;20024;-71
2022/08/08 02:05:25;;;;;;;8.75;5.00;;;17.90;64.60;;;;;;5114506;28;20483;-71
2022/08/08 02:08:01;;;;;;;8.90;5.40;;;17.80;64.50;;;;;;5114801;28;20032;-71
2022/08/08 02:10:27;;;;;;;7.97;5.38;;;17.70;64.30;;;;;;5114892;28;20024;-71
2022/08/08 02:13:01;;;;;;;9.48;5.50;;;17.70;64.90;;;;;;5114670;28;20038;-71
2022/08/08 02:15:46;;;;;;;9.38;5.82;;;17.70;65.30;;;;;;5113761;28;20115;-71
2022/08/08 02:18:16;;;;;;;10.60;6.38;;;17.80;65.60;;;;;;5114627;28;20024;-72
2022/08/08 02:24:03;;;;;;;8.35;5.63;;;17.90;64.90;;;;;;5114526;28;20058;-72
2022/08/08 02:26:40;;;;;;;9.73;5.85;;;17.90;64.60;;;;;;5114398;28;20033;-71
2022/08/08 02:29:22;;;;;;;8.88;5.80;;;17.90;64.60;;;;;;5114336;28;20016;-71
2022/08/08 02:32:37;;;;;;;9.93;5.90;;;17.80;64.90;;;;;;5114388;28;20024;-71
2022/08/08 02:35:18;;;;;;;8.82;5.75;;;17.70;65.20;;;;;;5101307;28;20043;-71
2022/08/08 02:38:22;;;;;;;10.48;5.85;;;17.50;65.70;;;;;;5114391;28;20020;-71
2022/08/08 02:41:26;;;;;;;11.60;6.05;;;17.60;66.00;;;;;;5110844;28;20039;-71
2022/08/08 02:44:24;;;;;;;11.93;6.65;;;17.50;65.80;;;;;;5114259;28;20028;-72
2022/08/08 02:47:17;;;;;;;8.40;5.82;;;17.50;65.60;;;;;;5114051;28;20042;-71
2022/08/08 02:50:23;;;;;;;8.63;5.95;;;17.50;65.40;;;;;;5113091;28;20028;-71
2022/08/08 02:53:07;;;;;;;8.05;5.60;;;17.40;66.30;;;;;;5114191;28;20451;-71
2022/08/08 02:56:10;;;;;;;9.75;6.07;;;17.30;66.10;;;;;;5114017;28;20024;-71
2022/08/08 02:58:55;;;;;;;10.98;6.47;;;17.40;66.60;;;;;;5113865;28;20054;-71
2022/08/08 03:01:48;;;;;;;12.65;6.25;;;17.50;66.70;;;;;;5113786;28;20038;-71
2022/08/08 03:04:16;;;;;;;9.43;6.13;;;17.60;66.60;;;;;;5113638;28;20483;-71
2022/08/08 03:06:54;;;;;;;10.73;5.80;;;17.60;66.50;;;;;;5113751;28;20024;-71
2022/08/08 03:09:57;;;;;;;9.63;5.35;;;17.60;66.70;;;;;;5113899;28;20024;-72
2022/08/08 03:12:41;;;;;;;8.20;5.18;;;17.50;66.30;;;;;;5113694;28;20036;-72
2022/08/08 03:15:25;;;;;;;9.75;5.60;;;17.60;66.30;;;;;;5113822;28;20035;-71
2022/08/08 03:18:12;;;;;;;11.02;5.32;;;17.40;65.90;;;;;;5113656;28;20031;-72
2022/08/08 03:20:44;;;;;;;7.10;5.35;;;17.40;66.70;;;;;;5098089;28;20088;-71
2022/08/08 03:23:10;;;;;;;8.75;5.70;;;17.30;66.90;;;;;;5113575;28;20019;-71
2022/08/08 03:25:37;;;;;;;10.27;5.75;;;17.20;67.00;;;;;;5113550;28;20032;-71
2022/08/08 03:28:26;;;;;;;12.07;5.70;;;17.30;67.00;;;;;;5113424;28;20027;-71
2022/08/08 03:30:52;;;;;;;12.73;5.50;;;17.40;67.00;;;;;;5113542;28;20054;-71
2022/08/08 03:33:18;;;;;;;9.77;5.78;;;17.40;66.70;;;;;;5113466;28;20036;-72
2022/08/08 03:35:49;;;;;;;9.75;5.60;;;17.30;66.90;;;;;;5113447;28;20111;-71
2022/08/08 03:38:16;;;;;;;10.40;6.00;;;17.20;66.90;;;;;;5113413;28;20085;-71
2022/08/08 03:40:51;;;;;;;7.75;5.40;;;17.20;67.10;;;;;;5113320;28;20028;-72
2022/08/08 03:43:17;;;;;;;9.43;5.90;;;17.30;67.00;;;;;;5113456;28;20020;-71
2022/08/08 03:45:43;;;;;;;8.07;5.25;;;17.20;66.60;;;;;;5113351;28;20055;-71
2022/08/08 03:48:09;;;;;;;9.20;6.15;;;17.20;67.00;;;;;;5113340;28;20027;-71
2022/08/08 03:50:39;;;;;;;8.68;5.50;;;17.10;67.30;;;;;;5113310;28;20028;-71
2022/08/08 03:53:12;;;;;;;8.85;5.82;;;17.10;67.30;;;;;;5115266;28;20035;-71
2022/08/08 03:55:39;;;;;;;11.48;5.63;;;17.20;67.40;;;;;;5117388;28;20054;-71
2022/08/08 03:58:05;;;;;;;10.85;5.55;;;17.20;67.90;;;;;;5117283;28;20024;-71
2022/08/08 04:00:31;;;;;;;8.93;5.70;;;17.20;67.70;;;;;;5117157;28;20036;-71
2022/08/08 04:02:59;;;;;;;9.90;6.20;;;17.30;67.70;;;;;;5116988;28;20054;-71
2022/08/08 04:05:30;;;;;;;9.82;6.13;;;17.40;67.60;;;;;;5117129;28;20016;-71
2022/08/08 04:07:56;;;;;;;8.95;5.53;;;17.40;67.60;;;;;;5117091;28;20049;-71
2022/08/08 04:10:22;;;;;;;11.85;6.20;;;17.30;68.70;;;;;;5117079;28;20024;-71
2022/08/08 04:12:48;;;;;;;11.07;5.88;;;17.20;67.90;;;;;;5117012;28;20032;-71
2022/08/08 04:15:14;;;;;;;7.95;5.38;;;17.20;68.20;;;;;;5116960;28;20054;-71
2022/08/08 04:17:40;;;;;;;7.22;4.88;;;17.20;68.40;;;;;;5117076;28;20046;-71
2022/08/08 04:20:06;;;;;;;7.13;4.97;;;17.10;67.60;;;;;;5116821;28;20031;-71
2022/08/08 04:22:32;;;;;;;8.50;4.97;;;16.90;67.60;;;;;;5116793;28;20031;-71
2022/08/08 04:24:57;;;;;;;7.30;5.10;;;16.90;68.10;;;;;;5116782;28;20059;-71
2022/08/08 04:27:24;;;;;;;8.95;4.95;;;16.70;68.50;;;;;;5116739;28;20050;-71
2022/08/08 04:29:50;;;;;;;7.10;4.53;;;16.70;68.40;;;;;;5116691;28;20039;-71
2022/08/08 04:32:16;;;;;;;8.52;5.18;;;16.80;68.50;;;;;;5116633;28;20525;-71
2022/08/08 04:34:42;;;;;;;10.75;5.25;;;16.80;68.60;;;;;;5116559;28;20024;-71
2022/08/08 04:37:09;;;;;;;7.97;4.90;;;16.80;68.50;;;;;;5116537;28;20096;-71
2022/08/08 04:39:34;;;;;;;8.65;5.15;;;16.90;68.20;;;;;;5116473;28;20024;-71
2022/08/08 04:42:00;;;;;;;10.63;5.35;;;16.80;67.80;;;;;;5116452;28;20100;-71
2022/08/08 04:44:26;;;;;;;8.10;4.70;;;16.90;67.80;;;;;;5116405;28;20039;-71
2022/08/08 04:46:51;;;;;;;7.88;5.18;;;16.90;67.60;;;;;;5116369;28;20028;-71
2022/08/08 04:49:17;;;;;;;12.23;5.55;;;16.90;67.30;;;;;;5116331;28;20031;-71
2022/08/08 04:51:43;;;;;;;7.78;4.95;;;16.80;67.20;;;;;;5116239;28;20024;-72
2022/08/08 04:54:08;;;;;;;10.77;4.93;;;16.80;67.60;;;;;;5116233;28;20387;-71
2022/08/08 04:56:34;;;;;;;8.43;5.18;;;16.80;67.90;;;;;;5116317;28;20021;-71
2022/08/08 04:59:00;;;;;;;8.65;5.38;;;16.80;68.00;;;;;;5116185;28;20028;-72
2022/08/08 05:01:25;;;;;;;9.90;5.40;;;16.80;67.80;;;;;;5115971;28;20036;-71
2022/08/08 05:03:51;;;;;;;9.95;5.60;;;16.80;67.80;;;;;;5114814;28;20052;-71
2022/08/08 05:06:17;;;;;;;7.93;5.35;;;16.80;68.30;;;;;;5114841;28;20081;-71
2022/08/08 05:08:43;;;;;;;10.60;6.18;;;16.90;68.70;;;;;;5115948;28;20028;-71
2022/08/08 05:11:12;;;;;;;9.07;6.20;;;16.90;68.80;;;;;;5115963;28;20028;-71
2022/08/08 05:13:39;;;;;;;9.75;6.22;;;16.90;68.70;;;;;;5115788;28;20028;-71
2022/08/08 05:16:05;;;;;;;8.13;6.32;;;16.90;69.30;;;;;;5115804;28;20028;-71
2022/08/08 05:18:32;;;;;;;9.60;5.78;;;17.00;70.00;;;;;;5115769;28;20031;-71
2022/08/08 05:20:58;;;;;;;9.43;6.30;;;17.10;70.20;;;;;;5115643;28;20024;-71
2022/08/08 05:23:25;;;;;;;10.52;6.30;;;17.20;70.20;;;;;;5097685;28;20028;-71
2022/08/08 05:25:50;;;;;;;9.10;6.30;;;17.30;70.20;;;;;;5115650;28;20024;-71
2022/08/08 05:28:17;;;;;;;12.35;6.55;;;17.30;70.20;;;;;;5115662;28;20084;-71
2022/08/08 05:30:42;;;;;;;10.75;6.50;;;17.40;71.00;;;;;;5115572;28;20031;-71
2022/08/08 05:33:08;;;;;;;11.23;6.30;;;17.50;70.30;;;;;;5115498;28;20032;-71
2022/08/08 05:35:34;;;;;;;10.50;7.35;;;17.50;70.30;;;;;;5115419;28;20065;-71
2022/08/08 05:38:06;;;;;;;11.82;7.43;;;17.60;70.40;;;;;;5115350;28;20035;-71
2022/08/08 05:40:33;;;;;;;13.05;7.68;;;17.70;70.30;;;;;;5115295;28;20048;-71
2022/08/08 05:43:04;;;;;;;15.68;8.48;;;17.70;70.30;;;;;;5115283;28;20028;-71
2022/08/08 05:45:35;;;;;;;14.70;8.07;;;17.80;70.50;;;;;;5115183;28;20032;-71
2022/08/08 05:48:02;;;;;;;12.60;8.05;;;17.80;70.40;;;;;;5115163;28;20028;-72
2022/08/08 05:50:29;;;;;;;12.68;8.10;;;17.80;70.30;;;;;;5115173;28;20024;-72
2022/08/08 05:52:55;;;;;;;13.98;7.85;;;17.90;70.30;;;;;;5115070;28;20025;-72
2022/08/08 05:55:21;;;;;;;12.93;7.15;;;17.90;70.20;;;;;;5115069;28;20059;-71
2022/08/08 05:57:50;;;;;;;11.68;7.68;;;18.00;71.00;;;;;;5115018;28;20054;-72
2022/08/08 06:00:17;;;;;;;11.55;7.93;;;18.00;70.20;;;;;;5114937;28;20479;-72
2022/08/08 06:05:33;;;;;;;13.45;7.50;;;18.10;70.60;;;;;;5115083;28;20062;-72
2022/08/08 06:08:00;;;;;;;13.32;7.47;;;18.10;70.60;;;;;;5114846;28;20016;-72
2022/08/08 06:10:30;;;;;;;14.05;7.15;;;18.20;70.60;;;;;;5114718;28;20036;-72
2022/08/08 06:12:56;;;;;;;10.82;6.90;;;18.20;70.60;;;;;;5114710;28;20357;-72
2022/08/08 06:15:22;;;;;;;11.60;6.70;;;18.20;70.70;;;;;;5114486;28;20027;-71
2022/08/08 06:17:50;;;;;;;12.25;6.55;;;18.20;70.80;;;;;;5114617;28;20024;-72
2022/08/08 06:20:15;;;;;;;9.13;5.85;;;18.30;70.90;;;;;;5114636;28;20190;-72
2022/08/08 06:22:41;;;;;;;12.13;6.38;;;18.30;71.80;;;;;;5114502;28;20032;-71
2022/08/08 06:25:08;;;;;;;10.45;5.90;;;18.40;70.80;;;;;;5114458;28;20046;-72
2022/08/08 06:27:46;;;;;;;7.10;5.05;;;18.50;70.70;;;;;;5114600;28;20029;-71
2022/08/08 06:30:13;;;;;;;9.82;5.15;;;18.50;70.80;;;;;;5114301;28;20038;-71
2022/08/08 06:33:08;;;;;;;8.13;4.90;;;18.60;70.70;;;;;;5114370;28;20047;-71
2022/08/08 06:35:36;;;;;;;7.20;4.68;;;18.60;70.30;;;;;;5113875;28;20063;-72
2022/08/08 06:38:05;;;;;;;10.52;4.82;;;18.60;70.60;;;;;;5114226;28;20035;-71
2022/08/08 06:40:32;;;;;;;8.73;4.50;;;18.70;70.60;;;;;;5114148;28;20076;-71
2022/08/08 06:42:58;;;;;;;7.63;4.25;;;18.80;70.50;;;;;;5114125;28;20092;-71
2022/08/08 06:45:24;;;;;;;6.57;3.92;;;18.80;70.40;;;;;;5114129;28;20024;-72
2022/08/08 06:47:51;;;;;;;8.20;3.72;;;18.80;70.40;;;;;;5114115;28;20026;-71
2022/08/08 06:50:16;;;;;;;8.35;3.38;;;18.90;69.90;;;;;;5114024;28;20027;-72
2022/08/08 06:52:42;;;;;;;5.70;3.22;;;18.90;69.50;;;;;;5114047;28;20039;-72
2022/08/08 06:55:08;;;;;;;9.35;3.95;;;19.00;69.50;;;;;;5113972;28;20020;-72
2022/08/08 06:57:35;;;;;;;5.00;3.67;;;19.00;69.80;;;;;;5114057;28;20059;-71
2022/08/08 07:00:04;;;;;;;6.10;3.45;;;19.10;69.60;;;;;;5113841;28;20043;-71
2022/08/08 07:02:32;;;;;;;6.13;2.97;;;19.10;69.40;;;;;;5113679;28;20403;-71
2022/08/08 07:05:11;;;;;;;6.03;3.17;;;19.10;69.30;;;;;;5113836;28;20016;-71
2022/08/08 07:08:05;;;;;;;3.78;2.85;;;19.20;69.20;;;;;;5113871;28;20020;-71
2022/08/08 07:10:36;;;;;;;5.85;2.70;;;19.30;69.20;;;;;;5113817;28;20031;-71
2022/08/08 07:13:03;;;;;;;5.70;2.58;;;19.30;68.70;;;;;;5113738;28;20031;-71
2022/08/08 07:15:44;;;;;;;5.45;2.70;;;19.30;68.60;;;;;;5113802;28;20020;-71
2022/08/08 07:18:11;;;;;;;4.63;2.53;;;19.40;68.30;;;;;;5113737;28;20054;-71
2022/08/08 07:20:41;;;;;;;2.92;2.30;;;19.50;67.90;;;;;;5113544;28;20075;-71
2022/08/08 07:23:26;;;;;;;4.45;2.42;;;19.50;67.70;;;;;;5113684;28;20044;-70
2022/08/08 07:25:54;;;;;;;3.70;2.13;;;19.60;67.40;;;;;;5113712;28;20016;-71
2022/08/08 07:28:24;;;;;;;3.03;1.95;;;19.60;67.40;;;;;;5112757;28;20073;-71
2022/08/08 07:30:50;;;;;;;4.05;2.05;;;19.60;66.90;;;;;;5113508;28;20023;-71
2022/08/08 07:33:17;;;;;;;4.03;1.83;;;19.70;66.10;;;;;;5113469;28;20033;-71
2022/08/08 07:35:46;;;;;;;6.25;2.00;;;19.70;65.50;;;;;;5113478;28;20020;-71
2022/08/08 07:38:14;;;;;;;3.95;2.30;;;19.70;65.70;;;;;;5113441;28;20032;-71
2022/08/08 07:40:42;;;;;;;3.03;1.80;;;19.80;65.30;;;;;;5113354;28;20028;-71
2022/08/08 07:43:11;;;;;;;6.10;2.60;;;19.80;64.30;;;;;;5113419;28;20043;-71
2022/08/08 07:45:37;;;;;;;3.67;2.00;;;19.90;64.20;;;;;;5113504;28;20021;-71
2022/08/08 07:48:03;;;;;;;3.90;2.00;;;19.90;63.80;;;;;;5113322;28;20020;-71
2022/08/08 07:50:36;;;;;;;4.07;1.92;;;20.00;63.80;;;;;;5113348;28;20039;-71
2022/08/08 07:53:19;;;;;;;4.38;2.10;;;20.00;64.20;;;;;;5113452;28;20054;-71
2022/08/08 07:55:47;;;;;;;4.63;1.80;;;20.10;63.80;;;;;;5113441;28;20071;-71
2022/08/08 07:58:27;;;;;;;4.22;1.75;;;20.20;63.60;;;;;;5113222;28;20037;-71
2022/08/08 08:00:59;;;;;;;3.45;1.70;;;20.30;63.50;;;;;;5113330;28;20027;-71
2022/08/08 08:03:31;;;;;;;3.50;1.88;;;20.30;63.00;;;;;;5112853;28;20051;-71
2022/08/08 08:05:58;;;;;;;3.63;1.70;;;20.30;63.00;;;;;;5113388;28;20027;-71
2022/08/08 08:08:41;;;;;;;3.80;1.88;;;20.40;62.90;;;;;;5113200;28;20017;-71
2022/08/08 08:11:10;;;;;;;;;;;20.50;63.10;;;;;;5113562;28;20028;-71
2022/08/08 08:13:51;;;;;;;4.57;1.77;;;20.50;62.30;;;;;;5113132;28;19904;-71
2022/08/08 08:16:25;;;;;;;3.13;1.92;;;20.60;61.90;;;;;;5113284;28;20054;-71
2022/08/08 08:19:02;;;;;;;2.55;1.75;;;20.60;61.80;;;;;;5113104;28;20027;-71
2022/08/08 08:21:35;;;;;;;2.97;1.80;;;20.70;61.40;;;;;;5113049;28;20024;-71
2022/08/08 08:24:01;;;;;;;3.03;1.45;;;20.80;61.20;;;;;;5113079;28;20017;-71
2022/08/08 08:26:27;;;;;;;3.70;1.58;;;20.90;60.70;;;;;;5113036;28;20021;-71
2022/08/08 08:28:52;;;;;;;2.85;1.58;;;21.00;60.60;;;;;;5112912;28;20029;-70
2022/08/08 08:31:18;;;;;;;2.35;1.50;;;21.00;60.20;;;;;;5112975;28;20039;-71
2022/08/08 08:33:44;;;;;;;2.22;1.58;;;21.10;58.50;;;;;;5112906;28;20036;-71
2022/08/08 08:36:10;;;;;;;4.10;1.58;;;21.10;58.80;;;;;;5112894;28;20040;-70
2022/08/08 08:38:37;;;;;;;2.97;1.58;;;21.20;58.80;;;;;;5113940;28;20020;-71
2022/08/08 08:41:03;;;;;;;4.15;1.50;;;21.30;58.50;;;;;;5116448;28;20029;-71
2022/08/08 08:43:30;;;;;;;3.97;1.40;;;21.40;58.50;;;;;;5116467;28;20040;-71
2022/08/08 08:45:57;;;;;;;2.50;1.50;;;21.50;56.70;;;;;;5116594;28;20033;-71
2022/08/08 08:48:23;;;;;;;6.50;2.10;;;21.40;56.70;;;;;;5116372;28;20032;-71
2022/08/08 08:50:51;;;;;;;2.30;1.50;;;21.50;56.40;;;;;;5116326;28;20070;-70
2022/08/08 08:53:17;;;;;;;3.88;1.30;;;21.60;55.40;;;;;;5116219;28;20024;-71
2022/08/08 08:55:44;;;;;;;2.72;1.50;;;21.60;55.30;;;;;;5116213;28;20054;-71
2022/08/08 08:58:31;;;;;;;3.50;1.45;;;21.70;54.70;;;;;;5116163;28;20035;-71
2022/08/08 09:00:59;;;;;;;3.17;1.33;;;21.70;54.10;;;;;;5116101;28;20077;-71
2022/08/08 09:03:26;;;;;;;2.83;1.40;;;21.70;54.40;;;;;;5115889;28;20044;-71
2022/08/08 09:05:53;;;;;;;3.75;1.35;;;21.80;54.60;;;;;;5116109;28;20032;-71
2022/08/08 09:08:26;;;;;;;4.03;1.60;;;21.90;54.50;;;;;;5115985;28;20020;-71
2022/08/08 09:10:52;;;;;;;1.85;1.40;;;22.00;54.00;;;;;;5115985;28;20033;-71
2022/08/08 09:13:18;;;;;;;3.83;1.30;;;22.00;54.20;;;;;;5115927;28;20087;-71
2022/08/08 09:15:44;;;;;;;2.63;1.50;;;22.10;54.80;;;;;;5115869;28;20035;-71
2022/08/08 09:18:10;;;;;;;5.15;1.63;;;22.20;55.00;;;;;;5115976;28;20052;-71
2022/08/08 09:20:39;;;;;;;3.85;1.42;;;22.30;55.30;;;;;;5115830;28;20028;-71
2022/08/08 09:23:06;;;;;;;2.25;1.50;;;22.30;54.60;;;;;;5115726;28;20095;-71
2022/08/08 09:25:35;;;;;;;2.42;1.50;;;22.40;54.80;;;;;;5115753;28;20031;-71
2022/08/08 09:28:01;;;;;;;4.13;1.55;;;22.50;54.10;;;;;;5115552;28;20050;-71
2022/08/08 09:30:30;;;;;;;2.00;1.58;;;22.50;55.80;;;;;;5115600;28;20027;-71
2022/08/08 09:32:56;;;;;;;2.22;1.50;;;22.60;55.50;;;;;;5115527;28;20051;-71
2022/08/08 09:35:27;;;;;;;3.38;1.50;;;22.70;55.70;;;;;;5115470;28;20083;-71
2022/08/08 09:38:01;;;;;;;1.80;1.40;;;22.80;54.70;;;;;;5115445;28;20092;-71
2022/08/08 09:40:29;;;;;;;2.22;1.63;;;22.80;54.60;;;;;;5115383;28;20031;-71
2022/08/08 09:42:54;;;;;;;3.63;1.50;;;23.00;54.80;;;;;;5115307;28;20020;-71
2022/08/08 09:45:28;;;;;;;2.30;1.40;;;23.10;54.50;;;;;;5115175;28;20031;-71
2022/08/08 09:47:57;;;;;;;2.72;1.65;;;23.20;53.20;;;;;;5115394;28;20016;-71
2022/08/08 09:50:25;;;;;;;4.45;1.50;;;23.20;54.20;;;;;;5114518;28;20030;-70
2022/08/08 09:52:52;;;;;;;4.30;1.20;;;23.40;54.10;;;;;;5115135;28;20027;-71
2022/08/08 09:55:20;;;;;;;3.15;1.40;;;23.40;53.10;;;;;;5115104;28;20076;-71
2022/08/08 09:57:48;;;;;;;2.70;1.52;;;23.50;52.70;;;;;;5115044;28;20031;-71
2022/08/08 10:00:16;;;;;;;2.05;1.10;;;23.60;53.20;;;;;;5114898;28;20024;-71
2022/08/08 10:02:46;;;;;;;3.17;1.25;;;23.60;51.20;;;;;;5114725;28;20030;-71
2022/08/08 10:05:17;;;;;;;3.45;1.33;;;23.70;52.10;;;;;;5115101;28;20048;-71
2022/08/08 10:08:04;;;;;;;2.58;1.20;;;23.80;52.20;;;;;;5114812;28;20092;-71
2022/08/08 10:10:40;;;;;;;2.45;1.13;;;23.90;51.20;;;;;;5113803;28;20028;-71
2022/08/08 10:13:24;;;;;;;2.08;1.20;;;24.00;50.00;;;;;;5114728;28;20020;-71
2022/08/08 10:15:55;;;;;;;1.60;1.23;;;24.00;49.20;;;;;;5114732;28;20070;-71
2022/08/08 10:18:29;;;;;;;2.90;1.20;;;24.00;48.80;;;;;;5114701;28;20021;-71
2022/08/08 10:21:11;;;;;;;4.53;1.60;;;24.00;48.40;;;;;;5114619;28;20024;-71
2022/08/08 10:23:47;;;;;;;1.45;1.00;;;24.00;49.50;;;;;;5114640;28;20016;-71
2022/08/08 10:26:35;;;;;;;4.80;1.20;;;24.10;49.10;;;;;;5114679;28;20053;-71
2022/08/08 10:29:05;;;;;;;1.38;1.10;;;24.10;48.80;;;;;;5114461;28;20020;-71
2022/08/08 10:34:19;;;;;;;2.42;1.30;;;24.30;48.50;;;;;;5114608;28;20066;-71
2022/08/08 10:36:46;;;;;;;2.35;1.23;;;24.50;48.30;;;;;;5114341;28;20035;-71
2022/08/08 10:39:20;;;;;;;2.95;1.20;;;24.50;47.50;;;;;;5114251;28;20092;-71
2022/08/08 10:41:55;;;;;;;2.20;1.10;;;24.50;47.10;;;;;;5114122;28;20032;-71
2022/08/08 10:44:35;;;;;;;2.75;1.40;;;24.60;46.30;;;;;;5114253;28;20024;-70
2022/08/08 10:47:17;;;;;;;1.63;1.15;;;24.60;46.70;;;;;;5114198;28;20031;-71
2022/08/08 10:50:12;;;;;;;2.42;1.25;;;24.60;46.80;;;;;;5114189;28;20026;-70
2022/08/08 10:52:40;;;;;;;1.40;1.20;;;24.70;46.90;;;;;;5109345;28;20040;-70
2022/08/08 10:55:17;;;;;;;4.13;1.35;;;24.70;47.00;;;;;;5114027;28;20020;-70
2022/08/08 10:57:45;;;;;;;1.45;1.00;;;24.70;46.80;;;;;;5113980;28;20059;-70
2022/08/08 11:00:13;;;;;;;1.73;1.08;;;24.70;47.10;;;;;;5113886;28;20020;-70
2022/08/08 11:02:39;;;;;;;2.05;1.20;;;24.60;46.80;;;;;;5112778;28;20024;-70
2022/08/08 11:05:11;;;;;;;2.15;1.20;;;24.50;46.30;;;;;;5113885;28;20029;-71
2022/08/08 11:07:39;;;;;;;1.27;0.80;;;24.50;47.00;;;;;;5113880;28;20022;-71
2022/08/08 11:10:12;;;;;;;2.25;1.02;;;24.60;47.30;;;;;;5113763;28;20028;-69
2022/08/08 11:12:49;;;;;;;1.63;1.10;;;24.70;47.30;;;;;;5113755;28;20028;-69
2022/08/08 11:15:18;;;;;;;2.92;1.27;;;24.80;45.70;;;;;;5113744;28;20024;-69
2022/08/08 11:17:45;;;;;;;1.50;1.20;;;24.90;46.10;;;;;;5113685;28;20077;-70
2022/08/08 11:20:16;;;;;;;2.92;1.30;;;25.00;45.80;;;;;;5113562;28;20028;-70
2022/08/08 11:22:42;;;;;;;2.70;1.00;;;24.90;45.20;;;;;;5112739;28;20115;-69
2022/08/08 11:25:10;;;;;;;1.00;0.90;;;24.80;45.30;;;;;;5113600;28;20052;-70
2022/08/08 11:27:36;;;;;;;1.88;1.20;;;24.70;46.30;;;;;;5113593;28;20020;-70
2022/08/08 11:30:05;;;;;;;2.33;1.17;;;24.70;46.50;;;;;;5113474;28;20026;-72
2022/08/08 11:32:36;;;;;;;2.35;1.20;;;24.70;46.40;;;;;;5113515;28;20020;-71
2022/08/08 11:35:09;;;;;;;2.50;1.40;;;24.70;48.00;;;;;;5112509;28;20024;-71
2022/08/08 11:37:36;;;;;;;3.13;1.13;;;24.90;46.20;;;;;;5113467;28;20020;-71
2022/08/08 11:40:05;;;;;;;1.55;1.02;;;25.00;46.80;;;;;;5113411;28;20024;-71
2022/08/08 11:42:33;;;;;;;1.77;1.20;;;25.20;46.20;;;;;;5113394;28;20030;-71
2022/08/08 11:44:59;;;;;;;2.25;1.40;;;25.30;45.50;;;;;;5113441;28;20080;-71
2022/08/08 11:47:26;;;;;;;2.42;1.17;;;25.40;45.00;;;;;;5112405;28;20016;-71
2022/08/08 11:49:55;;;;;;;2.35;1.00;;;25.50;44.70;;;;;;5113358;28;20020;-71
2022/08/08 11:52:21;;;;;;;3.33;1.10;;;25.50;44.10;;;;;;5113346;28;20020;-70
2022/08/08 11:54:48;;;;;;;2.83;1.30;;;25.70;44.00;;;;;;5113329;28;20020;-70
2022/08/08 11:57:25;;;;;;;1.48;0.88;;;25.80;43.80;;;;;;5113297;28;20099;-70
2022/08/08 11:59:57;;;;;;;0.90;0.80;;;25.70;42.60;;;;;;5113171;28;20016;-70
2022/08/08 12:02:27;;;;;;;1.42;1.10;;;25.70;42.70;;;;;;5113212;28;20020;-70
2022/08/08 12:05:09;;;;;;;2.05;1.00;;;25.80;43.00;;;;;;5113054;28;20063;-70
2022/08/08 12:07:46;;;;;;;0.88;0.80;;;25.80;41.70;;;;;;5112248;28;20039;-71
2022/08/08 12:10:13;;;;;;;3.67;1.25;;;25.70;41.80;;;;;;5113150;28;20036;-71
2022/08/08 12:12:43;;;;;;;3.88;1.40;;;25.70;42.90;;;;;;5113153;28;20035;-70
2022/08/08 12:15:10;;;;;;;2.10;1.23;;;25.70;42.10;;;;;;5116747;28;20032;-71
2022/08/08 12:17:37;;;;;;;1.92;1.20;;;25.70;42.40;;;;;;5116966;28;20087;-71
2022/08/08 12:20:05;;;;;;;1.10;1.00;;;25.70;42.20;;;;;;5117033;28;20051;-71
2022/08/08 12:22:32;;;;;;;1.25;0.95;;;25.80;42.00;;;;;;5116901;28;20099;-70
2022/08/08 12:24:59;;;;;;;2.38;1.05;;;25.90;41.80;;;;;;5116835;28;20024;-71
2022/08/08 12:27:36;;;;;;;1.65;1.10;;;25.90;41.60;;;;;;5116859;28;20026;-70
2022/08/08 12:30:03;;;;;;;1.70;0.98;;;26.10;41.30;;;;;;5116739;28;20038;-71
2022/08/08 12:32:40;;;;;;;2.47;1.00;;;26.20;40.90;;;;;;5116662;28;20064;-71
2022/08/08 12:35:07;;;;;;;1.90;1.10;;;26.40;40.40;;;;;;5116725;28;20024;-71
2022/08/08 12:37:34;;;;;;;2.85;1.15;;;26.40;39.60;;;;;;5116588;28;20040;-71
2022/08/08 12:40:11;;;;;;;1.33;1.05;;;26.40;40.60;;;;;;5116553;28;20024;-71
2022/08/08 12:42:44;;;;;;;2.75;1.08;;;26.40;40.80;;;;;;5116579;28;20398;-71
2022/08/08 12:45:10;;;;;;;1.65;1.10;;;26.60;40.40;;;;;;5116498;28;20028;-71
2022/08/08 12:47:36;;;;;;;1.23;1.10;;;26.50;39.90;;;;;;5098630;28;20031;-71
2022/08/08 12:50:02;;;;;;;1.75;1.10;;;26.40;39.70;;;;;;5116399;28;20032;-71
2022/08/08 12:52:38;;;;;;;1.42;1.10;;;26.30;40.20;;;;;;5116343;28;20024;-72
2022/08/08 12:55:07;;;;;;;2.13;1.20;;;26.20;40.30;;;;;;5116301;28;20050;-71
2022/08/08 12:57:32;;;;;;;1.95;1.20;;;26.20;41.50;;;;;;5116195;28;20031;-71
2022/08/08 12:59:58;;;;;;;1.52;1.10;;;26.30;41.40;;;;;;5116119;28;20032;-71
2022/08/08 13:02:29;;;;;;;1.45;1.10;;;26.50;41.60;;;;;;5116165;28;20040;-71
2022/08/08 13:04:58;;;;;;;2.53;1.05;;;26.60;39.70;;;;;;5115962;28;20039;-71
2022/08/08 13:07:38;;;;;;;1.30;1.20;;;26.70;39.60;;;;;;5116134;28;20080;-70
2022/08/08 13:10:09;;;;;;;1.85;1.00;;;26.80;39.40;;;;;;5116003;28;20050;-70
2022/08/08 13:12:40;;;;;;;2.00;1.10;;;26.80;39.90;;;;;;5115915;28;20024;-70
2022/08/08 13:15:14;;;;;;;1.10;1.00;;;26.90;39.80;;;;;;5115903;28;20020;-69
2022/08/08 13:17:41;;;;;;;2.05;1.20;;;26.90;39.30;;;;;;5115953;28;20025;-70
2022/08/08 13:20:14;;;;;;;2.30;1.05;;;27.00;39.00;;;;;;5115752;28;20035;-70
2022/08/08 13:22:42;;;;;;;1.27;0.80;;;26.90;39.10;;;;;;5115852;28;20012;-70
2022/08/08 13:25:16;;;;;;;0.95;0.93;;;27.00;38.70;;;;;;5114705;28;20356;-71
2022/08/08 13:27:42;;;;;;;1.40;1.10;;;27.10;38.70;;;;;;5115714;28;20024;-70